createdAt,value
2017-10-01T00:00:14.616Z,0.00
2017-10-01T00:02:07.418Z,0.00
2017-10-01T00:03:07.291Z,0.00
2017-10-01T00:05:00.109Z,0.00
2017-10-01T00:05:59.949Z,0.00
2017-10-01T00:07:52.723Z,0.00
2017-10-01T00:08:52.698Z,0.00
2017-10-01T00:10:45.423Z,0.00
2017-10-01T00:11:45.295Z,0.00
2017-10-01T00:13:38.051Z,0.00
2017-10-01T00:14:37.961Z,0.00
2017-10-01T00:16:30.764Z,0.00
2017-10-01T00:17:30.633Z,0.00
2017-10-01T00:19:23.435Z,0.00
2017-10-01T00:20:23.372Z,0.00
2017-10-01T00:22:16.710Z,0.00
2017-10-01T00:23:16.107Z,0.00
2017-10-01T00:25:08.949Z,0.00
2017-10-01T00:26:08.699Z,0.00
2017-10-01T00:28:01.472Z,0.00
2017-10-01T00:29:01.387Z,0.00
2017-10-01T00:30:54.866Z,0.00
2017-10-01T00:31:54.740Z,0.00
2017-10-01T00:33:47.608Z,0.00
2017-10-01T00:34:47.420Z,0.00
2017-10-01T00:36:40.363Z,0.00
2017-10-01T00:37:40.173Z,0.00
2017-10-01T00:39:32.870Z,0.00
2017-10-01T00:40:32.793Z,0.00
2017-10-01T00:42:25.641Z,0.00
2017-10-01T00:43:25.514Z,0.00
2017-10-01T00:45:18.389Z,0.00
2017-10-01T00:46:18.200Z,0.00
2017-10-01T00:48:11.666Z,0.00
2017-10-01T00:49:11.360Z,0.00
2017-10-01T00:51:04.140Z,0.00
2017-10-01T00:52:04.017Z,0.00
2017-10-01T00:53:56.770Z,0.00
2017-10-01T00:54:56.705Z,0.00
2017-10-01T00:56:49.506Z,0.00
2017-10-01T00:57:49.407Z,0.00
2017-10-01T00:59:42.271Z,0.00
2017-10-01T01:00:42.057Z,0.00
2017-10-01T01:02:34.897Z,0.00
2017-10-01T01:03:34.805Z,0.00
2017-10-01T01:05:27.534Z,0.00
2017-10-01T01:06:27.402Z,0.00
2017-10-01T01:08:20.176Z,0.00
2017-10-01T01:09:20.088Z,0.00
2017-10-01T01:11:13.158Z,0.00
2017-10-01T01:12:12.974Z,0.00
2017-10-01T01:14:05.598Z,0.00
2017-10-01T01:15:05.502Z,0.00
2017-10-01T01:16:58.255Z,0.00
2017-10-01T01:17:58.130Z,0.00
2017-10-01T01:19:50.892Z,0.00
2017-10-01T01:20:50.812Z,0.00
2017-10-01T01:22:43.638Z,0.00
2017-10-01T01:23:43.560Z,0.00
2017-10-01T01:25:36.404Z,0.00
2017-10-01T01:26:36.186Z,0.00
2017-10-01T01:28:29.371Z,0.00
2017-10-01T01:29:29.292Z,0.00
2017-10-01T01:31:22.779Z,0.00
2017-10-01T01:32:22.587Z,0.00
2017-10-01T01:34:15.386Z,0.00
2017-10-01T01:35:15.379Z,0.00
2017-10-01T01:37:08.108Z,0.00
2017-10-01T01:38:07.992Z,0.00
2017-10-01T01:40:00.916Z,0.00
2017-10-01T01:41:00.729Z,0.00
2017-10-01T01:42:53.777Z,0.00
2017-10-01T01:43:53.694Z,0.00
2017-10-01T01:45:46.611Z,0.00
2017-10-01T01:46:46.449Z,0.00
2017-10-01T01:48:39.201Z,0.00
2017-10-01T01:49:39.087Z,0.00
2017-10-01T01:51:31.967Z,0.00
2017-10-01T01:52:31.840Z,0.00
2017-10-01T01:54:24.671Z,0.00
2017-10-01T01:55:24.587Z,0.00
2017-10-01T01:57:17.516Z,0.00
2017-10-01T01:58:17.457Z,0.00
2017-10-01T02:00:10.242Z,0.00
2017-10-01T02:01:10.114Z,0.00
2017-10-01T02:03:02.844Z,0.00
2017-10-01T02:04:02.714Z,0.00
2017-10-01T02:05:55.521Z,0.00
2017-10-01T02:06:55.394Z,0.00
2017-10-01T02:08:48.163Z,0.00
2017-10-01T02:09:48.072Z,0.00
2017-10-01T02:11:41.006Z,0.00
2017-10-01T02:12:40.821Z,0.00
2017-10-01T02:14:33.482Z,0.00
2017-10-01T02:15:33.402Z,0.00
2017-10-01T02:17:26.313Z,0.00
2017-10-01T02:18:26.187Z,0.00
2017-10-01T02:20:19.054Z,0.00
2017-10-01T02:21:18.932Z,0.00
2017-10-01T02:23:11.796Z,0.00
2017-10-01T02:24:11.552Z,0.00
2017-10-01T02:26:04.306Z,0.00
2017-10-01T02:27:04.217Z,0.00
2017-10-01T02:28:56.964Z,0.00
2017-10-01T02:29:56.885Z,0.00
2017-10-01T02:31:49.677Z,0.00
2017-10-01T02:32:49.554Z,0.00
2017-10-01T02:34:42.408Z,0.00
2017-10-01T02:35:42.397Z,0.00
2017-10-01T02:37:35.011Z,0.00
2017-10-01T02:38:34.879Z,0.00
2017-10-01T02:40:27.668Z,0.00
2017-10-01T02:41:27.541Z,0.00
2017-10-01T02:43:20.511Z,0.00
2017-10-01T02:44:20.352Z,0.00
2017-10-01T02:46:13.489Z,0.00
2017-10-01T02:47:13.102Z,0.00
2017-10-01T02:49:05.821Z,0.00
2017-10-01T02:50:05.736Z,0.00
2017-10-01T02:51:58.983Z,0.00
2017-10-01T02:52:58.860Z,0.00
2017-10-01T02:54:51.952Z,0.00
2017-10-01T02:55:51.921Z,0.00
2017-10-01T02:57:45.315Z,0.00
2017-10-01T02:58:44.597Z,0.00
2017-10-01T03:00:37.395Z,0.00
2017-10-01T03:01:37.208Z,0.00
2017-10-01T03:03:29.951Z,0.00
2017-10-01T03:04:29.870Z,0.00
2017-10-01T03:06:23.174Z,0.00
2017-10-01T03:07:23.046Z,0.00
2017-10-01T03:09:15.802Z,0.00
2017-10-01T03:10:15.720Z,0.00
2017-10-01T03:12:08.640Z,0.00
2017-10-01T03:13:08.416Z,0.00
2017-10-01T03:15:01.124Z,0.00
2017-10-01T03:16:01.049Z,0.00
2017-10-01T03:17:54.411Z,0.00
2017-10-01T03:18:54.281Z,0.00
2017-10-01T03:20:47.210Z,0.00
2017-10-01T03:21:47.010Z,0.00
2017-10-01T03:23:39.860Z,0.00
2017-10-01T03:24:39.659Z,0.00
2017-10-01T03:26:32.408Z,0.00
2017-10-01T03:27:32.286Z,0.00
2017-10-01T03:29:25.413Z,0.00
2017-10-01T03:30:25.334Z,0.00
2017-10-01T03:32:18.211Z,0.00
2017-10-01T03:33:18.116Z,0.00
2017-10-01T03:35:10.821Z,0.00
2017-10-01T03:36:10.754Z,0.00
2017-10-01T03:38:03.571Z,0.00
2017-10-01T03:39:03.444Z,0.00
2017-10-01T03:40:56.478Z,0.00
2017-10-01T03:41:56.351Z,0.00
2017-10-01T03:43:49.108Z,0.00
2017-10-01T03:44:49.020Z,0.00
2017-10-01T03:46:41.807Z,0.00
2017-10-01T03:47:41.759Z,0.00
2017-10-01T03:49:34.457Z,0.00
2017-10-01T03:50:34.338Z,0.00
2017-10-01T03:52:27.362Z,0.00
2017-10-01T03:53:27.232Z,0.00
2017-10-01T03:55:19.996Z,0.00
2017-10-01T03:56:19.940Z,0.00
2017-10-01T03:58:13.067Z,0.00
2017-10-01T03:59:12.585Z,0.00
2017-10-01T04:01:05.422Z,0.00
2017-10-01T04:02:05.233Z,0.00
2017-10-01T04:03:57.983Z,0.00
2017-10-01T04:04:57.901Z,0.00
2017-10-01T04:06:50.934Z,0.00
2017-10-01T04:07:50.803Z,0.00
2017-10-01T04:09:43.515Z,0.00
2017-10-01T04:10:43.446Z,0.00
2017-10-01T04:12:36.267Z,0.00
2017-10-01T04:13:36.102Z,0.00
2017-10-01T04:15:28.851Z,0.00
2017-10-01T04:16:28.772Z,0.00
2017-10-01T04:18:21.609Z,0.00
2017-10-01T04:19:21.471Z,0.00
2017-10-01T04:21:14.647Z,0.00
2017-10-01T04:22:14.120Z,0.00
2017-10-01T04:24:06.893Z,0.00
2017-10-01T04:25:06.788Z,0.00
2017-10-01T04:26:59.592Z,0.00
2017-10-01T04:27:59.463Z,0.00
2017-10-01T04:29:52.593Z,0.00
2017-10-01T04:30:52.486Z,0.00
2017-10-01T04:32:45.304Z,0.00
2017-10-01T04:33:45.130Z,0.00
2017-10-01T04:35:37.959Z,0.00
2017-10-01T04:36:37.802Z,0.00
2017-10-01T04:38:30.580Z,0.00
2017-10-01T04:39:30.453Z,0.00
2017-10-01T04:41:23.415Z,0.00
2017-10-01T04:42:23.290Z,0.00
2017-10-01T04:44:16.040Z,0.00
2017-10-01T04:45:15.970Z,0.00
2017-10-01T04:47:08.755Z,0.00
2017-10-01T04:48:08.673Z,0.00
2017-10-01T04:50:01.393Z,0.00
2017-10-01T04:51:01.311Z,0.00
2017-10-01T04:52:54.129Z,0.00
2017-10-01T04:53:54.002Z,0.00
2017-10-01T04:55:46.756Z,0.00
2017-10-01T04:56:46.710Z,4.00
2017-10-01T04:58:39.572Z,0.00
2017-10-01T04:59:40.127Z,4.00
2017-10-01T05:01:32.117Z,4.00
2017-10-01T05:02:31.992Z,4.00
2017-10-01T05:04:24.849Z,4.00
2017-10-01T05:05:24.771Z,8.00
2017-10-01T05:07:17.601Z,8.00
2017-10-01T05:08:17.433Z,12.00
2017-10-01T05:10:10.269Z,12.00
2017-10-01T05:11:10.185Z,16.00
2017-10-01T05:13:02.893Z,12.00
2017-10-01T05:14:02.769Z,16.00
2017-10-01T05:15:55.640Z,16.00
2017-10-01T05:16:55.560Z,20.00
2017-10-01T05:18:48.393Z,20.00
2017-10-01T05:19:48.259Z,24.00
2017-10-01T05:21:41.039Z,24.00
2017-10-01T05:22:40.972Z,24.00
2017-10-01T05:24:33.647Z,32.00
2017-10-01T05:25:33.566Z,32.00
2017-10-01T05:27:26.862Z,36.00
2017-10-01T05:28:26.739Z,40.00
2017-10-01T05:30:20.000Z,40.00
2017-10-01T05:31:19.921Z,40.00
2017-10-01T05:33:12.784Z,48.00
2017-10-01T05:34:12.593Z,52.00
2017-10-01T05:36:05.305Z,56.00
2017-10-01T05:37:05.207Z,56.00
2017-10-01T05:38:58.011Z,60.00
2017-10-01T05:39:57.883Z,68.00
2017-10-01T05:41:50.765Z,76.00
2017-10-01T05:42:50.613Z,84.00
2017-10-01T05:44:43.798Z,96.00
2017-10-01T05:45:43.725Z,96.00
2017-10-01T05:47:36.527Z,104.00
2017-10-01T05:48:36.366Z,108.00
2017-10-01T05:50:29.182Z,120.00
2017-10-01T05:51:29.096Z,124.00
2017-10-01T05:53:21.970Z,124.00
2017-10-01T05:54:21.807Z,132.00
2017-10-01T05:56:14.896Z,132.00
2017-10-01T05:57:14.476Z,136.00
2017-10-01T05:59:07.459Z,140.00
2017-10-01T06:00:07.124Z,156.00
2017-10-01T06:01:59.990Z,172.00
2017-10-01T06:02:59.864Z,188.00
2017-10-01T06:04:52.623Z,212.00
2017-10-01T06:05:52.579Z,220.00
2017-10-01T06:07:45.680Z,256.00
2017-10-01T06:08:45.444Z,260.00
2017-10-01T06:10:37.990Z,288.00
2017-10-01T06:11:37.892Z,300.00
2017-10-01T06:13:30.705Z,284.00
2017-10-01T06:14:30.571Z,300.00
2017-10-01T06:16:23.438Z,316.00
2017-10-01T06:17:23.376Z,312.00
2017-10-01T06:19:16.089Z,312.00
2017-10-01T06:20:16.000Z,312.00
2017-10-01T06:22:08.912Z,320.00
2017-10-01T06:23:08.690Z,312.00
2017-10-01T06:25:01.438Z,328.00
2017-10-01T06:26:01.359Z,340.00
2017-10-01T06:27:54.228Z,336.00
2017-10-01T06:28:54.099Z,332.00
2017-10-01T06:30:47.207Z,360.00
2017-10-01T06:31:46.963Z,376.00
2017-10-01T06:33:39.728Z,416.00
2017-10-01T06:34:39.521Z,424.00
2017-10-01T06:36:32.218Z,436.00
2017-10-01T06:37:32.091Z,432.00
2017-10-01T06:39:25.807Z,440.00
2017-10-01T06:40:25.723Z,456.00
2017-10-01T06:42:18.545Z,508.00
2017-10-01T06:43:18.425Z,528.00
2017-10-01T06:45:11.425Z,572.00
2017-10-01T06:46:11.120Z,608.00
2017-10-01T06:48:03.885Z,588.00
2017-10-01T06:49:03.757Z,608.00
2017-10-01T06:50:58.221Z,572.00
2017-10-01T06:51:58.141Z,580.00
2017-10-01T06:53:51.112Z,616.00
2017-10-01T06:54:50.983Z,616.00
2017-10-01T06:56:43.877Z,676.00
2017-10-01T06:57:43.676Z,660.00
2017-10-01T06:59:36.993Z,632.00
2017-10-01T07:00:36.805Z,656.00
2017-10-01T07:02:29.639Z,664.00
2017-10-01T07:03:29.513Z,620.00
2017-10-01T07:05:22.275Z,628.00
2017-10-01T07:06:22.188Z,624.00
2017-10-01T07:08:15.066Z,756.00
2017-10-01T07:09:14.844Z,760.00
2017-10-01T07:11:07.588Z,720.00
2017-10-01T07:12:07.517Z,720.00
2017-10-01T07:14:00.289Z,692.00
2017-10-01T07:15:00.163Z,728.00
2017-10-01T07:16:52.975Z,800.00
2017-10-01T07:17:52.856Z,772.00
2017-10-01T07:19:45.596Z,740.00
2017-10-01T07:20:45.555Z,848.00
2017-10-01T07:22:38.295Z,980.00
2017-10-01T07:23:38.179Z,932.00
2017-10-01T07:25:30.978Z,1024.00
2017-10-01T07:26:30.898Z,1048.00
2017-10-01T07:28:23.703Z,996.00
2017-10-01T07:29:23.573Z,1052.00
2017-10-01T07:31:16.340Z,1056.00
2017-10-01T07:32:16.268Z,1020.00
2017-10-01T07:34:09.118Z,1072.00
2017-10-01T07:35:08.981Z,1144.00
2017-10-01T07:37:01.862Z,1336.00
2017-10-01T07:38:01.750Z,1488.00
2017-10-01T07:39:55.162Z,1576.00
2017-10-01T07:40:55.081Z,1616.00
2017-10-01T07:42:48.171Z,1656.00
2017-10-01T07:43:47.792Z,1716.00
2017-10-01T07:45:41.539Z,1820.00
2017-10-01T07:46:40.533Z,1988.00
2017-10-01T07:48:33.208Z,2336.00
2017-10-01T07:49:33.081Z,2448.00
2017-10-01T07:51:26.120Z,2608.00
2017-10-01T07:52:26.038Z,2680.00
2017-10-01T07:54:18.957Z,2876.00
2017-10-01T07:55:18.825Z,2916.00
2017-10-01T07:57:12.408Z,2968.00
2017-10-01T07:58:11.491Z,3096.00
2017-10-01T08:00:04.245Z,3188.00
2017-10-01T08:01:04.156Z,3224.00
2017-10-01T08:02:57.081Z,3112.00
2017-10-01T08:03:56.958Z,3080.00
2017-10-01T08:05:49.761Z,2880.00
2017-10-01T08:06:49.757Z,2768.00
2017-10-01T08:08:42.503Z,2592.00
2017-10-01T08:09:42.325Z,2528.00
2017-10-01T08:11:35.074Z,2432.00
2017-10-01T08:12:34.956Z,2380.00
2017-10-01T08:14:27.745Z,2264.00
2017-10-01T08:15:27.619Z,2160.00
2017-10-01T08:17:20.588Z,1940.00
2017-10-01T08:18:20.322Z,1840.00
2017-10-01T08:20:13.193Z,1624.00
2017-10-01T08:21:13.001Z,1488.00
2017-10-01T08:23:05.814Z,1424.00
2017-10-01T08:24:05.749Z,1528.00
2017-10-01T08:25:58.414Z,1648.00
2017-10-01T08:26:58.337Z,1716.00
2017-10-01T08:28:51.358Z,1628.00
2017-10-01T08:29:51.214Z,1560.00
2017-10-01T08:31:43.919Z,1796.00
2017-10-01T08:32:43.932Z,1792.00
2017-10-01T08:34:36.634Z,1652.00
2017-10-01T08:35:36.487Z,1608.00
2017-10-01T08:37:29.269Z,1612.00
2017-10-01T08:38:29.142Z,1556.00
2017-10-01T08:40:22.424Z,1828.00
2017-10-01T08:41:22.344Z,1880.00
2017-10-01T08:43:15.585Z,1756.00
2017-10-01T08:44:15.080Z,1664.00
2017-10-01T08:46:07.858Z,1736.00
2017-10-01T08:47:07.817Z,1572.00
2017-10-01T08:49:00.555Z,1416.00
2017-10-01T08:50:00.426Z,1368.00
2017-10-01T08:51:53.217Z,1420.00
2017-10-01T08:52:53.088Z,1480.00
2017-10-01T08:54:45.957Z,1656.00
2017-10-01T08:55:45.790Z,1828.00
2017-10-01T08:57:38.602Z,2028.00
2017-10-01T08:58:38.490Z,2020.00
2017-10-01T09:00:31.663Z,2292.00
2017-10-01T09:01:31.585Z,2384.00
2017-10-01T09:03:24.453Z,2652.00
2017-10-01T09:04:24.370Z,2768.00
2017-10-01T09:06:17.237Z,2760.00
2017-10-01T09:07:17.165Z,2692.00
2017-10-01T09:09:10.570Z,2780.00
2017-10-01T09:10:10.338Z,2856.00
2017-10-01T09:12:02.911Z,2944.00
2017-10-01T09:13:02.831Z,3160.00
2017-10-01T09:14:55.640Z,3288.00
2017-10-01T09:15:55.516Z,3336.00
2017-10-01T09:17:48.394Z,3372.00
2017-10-01T09:18:48.289Z,3280.00
2017-10-01T09:20:41.072Z,2564.00
2017-10-01T09:21:40.949Z,2472.00
2017-10-01T09:23:33.701Z,2564.00
2017-10-01T09:24:33.644Z,2672.00
2017-10-01T09:26:27.404Z,3204.00
2017-10-01T09:27:27.264Z,3500.00
2017-10-01T09:29:20.073Z,3312.00
2017-10-01T09:30:19.953Z,3188.00
2017-10-01T09:32:12.972Z,3380.00
2017-10-01T09:33:12.666Z,3180.00
2017-10-01T09:35:05.407Z,2840.00
2017-10-01T09:36:05.275Z,2860.00
2017-10-01T09:37:57.993Z,3060.00
2017-10-01T09:38:57.915Z,3364.00
2017-10-01T09:40:51.152Z,3708.00
2017-10-01T09:41:51.031Z,3556.00
2017-10-01T09:43:46.845Z,3612.00
2017-10-01T09:44:43.700Z,3828.00
2017-10-01T09:46:36.623Z,3720.00
2017-10-01T09:47:36.318Z,3736.00
2017-10-01T09:49:29.039Z,3740.00
2017-10-01T09:50:28.904Z,3860.00
2017-10-01T09:52:22.868Z,3744.00
2017-10-01T09:53:22.786Z,3412.00
2017-10-01T09:55:15.702Z,2804.00
2017-10-01T09:56:15.585Z,2872.00
2017-10-01T09:58:08.294Z,2696.00
2017-10-01T09:59:08.139Z,2472.00
2017-10-01T10:01:01.048Z,2360.00
2017-10-01T10:02:00.815Z,2216.00
2017-10-01T10:03:53.608Z,2360.00
2017-10-01T10:04:53.525Z,2336.00
2017-10-01T10:06:46.327Z,2188.00
2017-10-01T10:07:46.203Z,2088.00
2017-10-01T10:09:38.964Z,1616.00
2017-10-01T10:10:38.863Z,1528.00
2017-10-01T10:12:31.651Z,1552.00
2017-10-01T10:13:31.523Z,1388.00
2017-10-01T10:15:24.380Z,1656.00
2017-10-01T10:16:24.217Z,1624.00
2017-10-01T10:18:17.141Z,1488.00
2017-10-01T10:19:16.932Z,1528.00
2017-10-01T10:21:09.714Z,1432.00
2017-10-01T10:22:09.606Z,1560.00
2017-10-01T10:24:02.291Z,1440.00
2017-10-01T10:25:02.213Z,1592.00
2017-10-01T10:26:55.015Z,1728.00
2017-10-01T10:27:54.889Z,1744.00
2017-10-01T10:29:47.644Z,1928.00
2017-10-01T10:30:47.559Z,2124.00
2017-10-01T10:32:40.394Z,2612.00
2017-10-01T10:33:40.317Z,2760.00
2017-10-01T10:35:32.960Z,2844.00
2017-10-01T10:36:32.881Z,2852.00
2017-10-01T10:38:25.675Z,3208.00
2017-10-01T10:39:25.540Z,2960.00
2017-10-01T10:41:18.350Z,2828.00
2017-10-01T10:42:18.334Z,3092.00
2017-10-01T10:44:11.098Z,3672.00
2017-10-01T10:45:10.873Z,3676.00
2017-10-01T10:47:04.145Z,3312.00
2017-10-01T10:48:04.032Z,3092.00
2017-10-01T10:49:56.833Z,2608.00
2017-10-01T10:50:56.706Z,2564.00
2017-10-01T10:52:49.583Z,2784.00
2017-10-01T10:53:49.376Z,2856.00
2017-10-01T10:55:42.231Z,3060.00
2017-10-01T10:56:42.122Z,3300.00
2017-10-01T10:58:34.851Z,3648.00
2017-10-01T10:59:34.692Z,3948.00
2017-10-01T11:01:27.837Z,4320.00
2017-10-01T11:02:27.756Z,4260.00
2017-10-01T11:04:20.770Z,4328.00
2017-10-01T11:05:20.581Z,3624.00
2017-10-01T11:07:14.139Z,3080.00
2017-10-01T11:08:13.807Z,3760.00
2017-10-01T11:10:06.544Z,2740.00
2017-10-01T11:11:06.489Z,2668.00
2017-10-01T11:12:59.106Z,2720.00
2017-10-01T11:13:59.024Z,2684.00
2017-10-01T11:15:52.019Z,2444.00
2017-10-01T11:16:51.774Z,2272.00
2017-10-01T11:18:44.835Z,2072.00
2017-10-01T11:19:44.620Z,2192.00
2017-10-01T11:21:37.368Z,2356.00
2017-10-01T11:22:37.246Z,2336.00
2017-10-01T11:24:29.896Z,2392.00
2017-10-01T11:25:29.769Z,2424.00
2017-10-01T11:27:22.609Z,2508.00
2017-10-01T11:28:22.531Z,2612.00
2017-10-01T11:30:15.398Z,2664.00
2017-10-01T11:31:15.433Z,2716.00
2017-10-01T11:33:08.120Z,2988.00
2017-10-01T11:34:07.922Z,2904.00
2017-10-01T11:36:00.951Z,2728.00
2017-10-01T11:37:00.753Z,2828.00
2017-10-01T11:38:53.711Z,3092.00
2017-10-01T11:39:53.777Z,3104.00
2017-10-01T11:41:47.154Z,3224.00
2017-10-01T11:42:46.586Z,3464.00
2017-10-01T11:44:39.209Z,3584.00
2017-10-01T11:45:39.146Z,3556.00
2017-10-01T11:47:32.084Z,3344.00
2017-10-01T11:48:31.913Z,3320.00
2017-10-01T11:50:27.061Z,3520.00
2017-10-01T11:51:26.865Z,3760.00
2017-10-01T11:53:20.015Z,3464.00
2017-10-01T11:54:23.237Z,3120.00
2017-10-01T11:56:18.348Z,2772.00
2017-10-01T11:57:12.513Z,3004.00
2017-10-01T11:59:05.098Z,3752.00
2017-10-01T12:00:05.034Z,4132.00
2017-10-01T12:01:57.983Z,4336.00
2017-10-01T12:02:57.833Z,4640.00
2017-10-01T12:04:50.720Z,4696.00
2017-10-01T12:05:50.679Z,4656.00
2017-10-01T12:07:43.406Z,4640.00
2017-10-01T12:08:43.225Z,4052.00
2017-10-01T12:10:36.086Z,3408.00
2017-10-01T12:11:35.959Z,3404.00
2017-10-01T12:13:29.029Z,3616.00
2017-10-01T12:14:28.793Z,3696.00
2017-10-01T12:16:22.090Z,3508.00
2017-10-01T12:17:21.712Z,3764.00
2017-10-01T12:19:15.587Z,4560.00
2017-10-01T12:20:14.410Z,4940.00
2017-10-01T12:22:07.429Z,4644.00
2017-10-01T12:23:07.139Z,4684.00
2017-10-01T12:24:59.954Z,4928.00
2017-10-01T12:25:59.879Z,4832.00
2017-10-01T12:27:55.204Z,4300.00
2017-10-01T12:28:54.313Z,4136.00
2017-10-01T12:30:47.621Z,4404.00
2017-10-01T12:31:47.176Z,4284.00
2017-10-01T12:33:40.007Z,4688.00
2017-10-01T12:34:39.875Z,4924.00
2017-10-01T12:36:33.694Z,4424.00
2017-10-01T12:37:33.024Z,4160.00
2017-10-01T12:39:27.668Z,3520.00
2017-10-01T12:40:27.418Z,3396.00
2017-10-01T12:42:22.723Z,3712.00
2017-10-01T12:43:22.652Z,3884.00
2017-10-01T12:45:17.715Z,4164.00
2017-10-01T12:46:16.773Z,3928.00
2017-10-01T12:48:09.201Z,3808.00
2017-10-01T12:49:09.134Z,3604.00
2017-10-01T12:51:03.947Z,3336.00
2017-10-01T12:52:03.147Z,3296.00
2017-10-01T12:53:56.424Z,3268.00
2017-10-01T12:54:56.161Z,3140.00
2017-10-01T12:56:50.231Z,2888.00
2017-10-01T12:57:50.559Z,2764.00
2017-10-01T12:59:45.874Z,2464.00
2017-10-01T13:00:44.211Z,2244.00
2017-10-01T13:02:34.830Z,1924.00
2017-10-01T13:03:34.742Z,1764.00
2017-10-01T13:05:28.361Z,1660.00
2017-10-01T13:06:28.093Z,1676.00
2017-10-01T13:08:22.321Z,1792.00
2017-10-01T13:09:22.260Z,1832.00
2017-10-01T13:11:16.319Z,1732.00
2017-10-01T13:12:15.980Z,1560.00
2017-10-01T13:14:06.924Z,1268.00
2017-10-01T13:15:06.679Z,1264.00
2017-10-01T13:17:00.353Z,1344.00
2017-10-01T13:18:00.276Z,1364.00
2017-10-01T13:19:55.243Z,1508.00
2017-10-01T13:20:55.027Z,1592.00
2017-10-01T13:22:49.032Z,1640.00
2017-10-01T13:23:48.222Z,1584.00
2017-10-01T13:25:43.376Z,1552.00
2017-10-01T13:26:42.027Z,1588.00
2017-10-01T13:28:33.512Z,1660.00
2017-10-01T13:29:33.403Z,1688.00
2017-10-01T13:31:27.270Z,1640.00
2017-10-01T13:32:27.019Z,1716.00
2017-10-01T13:34:22.544Z,1764.00
2017-10-01T13:35:19.841Z,1728.00
2017-10-01T13:37:12.762Z,1668.00
2017-10-01T13:38:13.104Z,1632.00
2017-10-01T13:40:05.777Z,1424.00
2017-10-01T13:41:05.113Z,1404.00
2017-10-01T13:42:58.356Z,1604.00
2017-10-01T13:43:58.640Z,1692.00
2017-10-01T13:45:51.557Z,1736.00
2017-10-01T13:46:51.389Z,1756.00
2017-10-01T13:48:46.466Z,1820.00
2017-10-01T13:49:44.728Z,1856.00
2017-10-01T13:51:36.870Z,1904.00
2017-10-01T13:52:36.626Z,1964.00
2017-10-01T13:54:30.079Z,2132.00
2017-10-01T13:55:30.967Z,2248.00
2017-10-01T13:57:24.027Z,2476.00
2017-10-01T13:58:23.761Z,2524.00
2017-10-01T14:00:17.420Z,2500.00
2017-10-01T14:01:17.641Z,2384.00
2017-10-01T14:03:10.192Z,2264.00
2017-10-01T14:04:09.938Z,2320.00
2017-10-01T14:06:02.707Z,2464.00
2017-10-01T14:07:02.627Z,2332.00
2017-10-01T14:08:56.146Z,2236.00
2017-10-01T14:09:55.878Z,2156.00
2017-10-01T14:11:48.617Z,2064.00
2017-10-01T14:12:48.644Z,1952.00
2017-10-01T14:14:44.511Z,1876.00
2017-10-01T14:15:42.872Z,1892.00
2017-10-01T14:17:34.227Z,1880.00
2017-10-01T14:18:33.960Z,1824.00
2017-10-01T14:20:27.405Z,1720.00
2017-10-01T14:21:27.328Z,1664.00
2017-10-01T14:23:20.487Z,1576.00
2017-10-01T14:24:20.040Z,1572.00
2017-10-01T14:26:15.306Z,1556.00
2017-10-01T14:27:13.270Z,1528.00
2017-10-01T14:29:06.149Z,1456.00
2017-10-01T14:30:05.887Z,1416.00
2017-10-01T14:31:59.248Z,1336.00
2017-10-01T14:32:58.587Z,1320.00
2017-10-01T14:34:52.528Z,1340.00
2017-10-01T14:35:52.549Z,1372.00
2017-10-01T14:37:46.834Z,1424.00
2017-10-01T14:38:45.249Z,1440.00
2017-10-01T14:40:37.516Z,1432.00
2017-10-01T14:41:37.261Z,1408.00
2017-10-01T14:43:30.210Z,1376.00
2017-10-01T14:44:30.133Z,1336.00
2017-10-01T14:46:24.737Z,1240.00
2017-10-01T14:47:24.998Z,1172.00
2017-10-01T14:49:18.004Z,1008.00
2017-10-01T14:50:17.949Z,920.00
2017-10-01T14:52:11.075Z,756.00
2017-10-01T14:53:09.960Z,708.00
2017-10-01T14:55:04.737Z,776.00
2017-10-01T14:56:03.521Z,800.00
2017-10-01T14:57:56.940Z,792.00
2017-10-01T14:58:56.855Z,772.00
2017-10-01T15:00:50.552Z,788.00
2017-10-01T15:01:50.564Z,848.00
2017-10-01T15:03:42.792Z,1024.00
2017-10-01T15:04:43.218Z,1116.00
2017-10-01T15:06:35.198Z,1172.00
2017-10-01T15:07:34.940Z,1084.00
2017-10-01T15:09:29.316Z,916.00
2017-10-01T15:10:28.803Z,1088.00
2017-10-01T15:12:22.625Z,1204.00
2017-10-01T15:13:21.954Z,1228.00
2017-10-01T15:15:16.817Z,1256.00
2017-10-01T15:16:14.417Z,1260.00
2017-10-01T15:18:07.089Z,1268.00
2017-10-01T15:19:07.037Z,1388.00
2017-10-01T15:21:01.070Z,1808.00
2017-10-01T15:22:00.496Z,1896.00
2017-10-01T15:23:54.358Z,1760.00
2017-10-01T15:24:54.264Z,1884.00
2017-10-01T15:26:50.054Z,1844.00
2017-10-01T15:27:48.030Z,1720.00
2017-10-01T15:29:44.705Z,1612.00
2017-10-01T15:30:41.490Z,1632.00
2017-10-01T15:32:33.570Z,1692.00
2017-10-01T15:33:33.453Z,1676.00
2017-10-01T15:35:27.020Z,1576.00
2017-10-01T15:36:26.920Z,1544.00
2017-10-01T15:38:19.774Z,1548.00
2017-10-01T15:39:19.637Z,1540.00
2017-10-01T15:41:12.997Z,1384.00
2017-10-01T15:42:13.944Z,1400.00
2017-10-01T15:44:05.110Z,1496.00
2017-10-01T15:45:05.024Z,1516.00
2017-10-01T15:46:58.168Z,1464.00
2017-10-01T15:47:57.918Z,1428.00
2017-10-01T15:49:51.515Z,1392.00
2017-10-01T15:50:50.930Z,1396.00
2017-10-01T15:52:44.411Z,1416.00
2017-10-01T15:53:44.105Z,1424.00
2017-10-01T15:55:37.198Z,1396.00
2017-10-01T15:56:36.069Z,1364.00
2017-10-01T15:58:29.380Z,1276.00
2017-10-01T15:59:29.189Z,1232.00
2017-10-01T16:01:23.181Z,1140.00
2017-10-01T16:02:22.992Z,1088.00
2017-10-01T16:04:16.506Z,1008.00
2017-10-01T16:05:15.867Z,980.00
2017-10-01T16:07:09.282Z,964.00
2017-10-01T16:08:09.278Z,964.00
2017-10-01T16:10:02.357Z,956.00
2017-10-01T16:11:02.074Z,944.00
2017-10-01T16:12:55.323Z,892.00
2017-10-01T16:13:55.295Z,860.00
2017-10-01T16:15:50.796Z,788.00
2017-10-01T16:16:47.956Z,748.00
2017-10-01T16:18:43.027Z,684.00
2017-10-01T16:19:41.962Z,648.00
2017-10-01T16:21:34.687Z,596.00
2017-10-01T16:22:34.433Z,572.00
2017-10-01T16:24:28.961Z,520.00
2017-10-01T16:25:28.279Z,500.00
2017-10-01T16:27:23.740Z,460.00
2017-10-01T16:28:23.642Z,440.00
2017-10-01T16:30:16.698Z,404.00
2017-10-01T16:31:16.449Z,388.00
2017-10-01T16:33:09.102Z,352.00
2017-10-01T16:34:09.060Z,336.00
2017-10-01T16:36:03.209Z,296.00
2017-10-01T16:37:03.083Z,276.00
2017-10-01T16:38:56.782Z,244.00
2017-10-01T16:39:56.650Z,228.00
2017-10-01T16:41:49.445Z,200.00
2017-10-01T16:42:49.327Z,188.00
2017-10-01T16:44:42.860Z,164.00
2017-10-01T16:45:42.163Z,148.00
2017-10-01T16:47:34.817Z,128.00
2017-10-01T16:48:34.729Z,112.00
2017-10-01T16:50:27.602Z,92.00
2017-10-01T16:51:27.318Z,84.00
2017-10-01T16:53:20.152Z,64.00
2017-10-01T16:54:20.055Z,60.00
2017-10-01T16:56:13.116Z,48.00
2017-10-01T16:57:12.718Z,40.00
2017-10-01T16:59:05.448Z,32.00
2017-10-01T17:00:05.337Z,28.00
2017-10-01T17:01:58.129Z,20.00
2017-10-01T17:02:58.003Z,16.00
2017-10-01T17:04:50.835Z,12.00
2017-10-01T17:05:50.753Z,8.00
2017-10-01T17:07:43.855Z,8.00
2017-10-01T17:08:43.517Z,8.00
2017-10-01T17:10:36.247Z,4.00
2017-10-01T17:11:36.069Z,4.00
2017-10-01T17:13:28.803Z,4.00
2017-10-01T17:14:28.723Z,4.00
2017-10-01T17:16:21.536Z,0.00
2017-10-01T17:17:21.397Z,0.00
2017-10-01T17:19:14.159Z,0.00
2017-10-01T17:20:14.090Z,0.00
2017-10-01T17:22:06.855Z,0.00
2017-10-01T17:23:06.737Z,0.00
2017-10-01T17:24:59.467Z,0.00
2017-10-01T17:25:59.385Z,0.00
2017-10-01T17:27:52.215Z,0.00
2017-10-01T17:28:52.071Z,0.00
2017-10-01T17:30:44.809Z,0.00
2017-10-01T17:31:44.788Z,0.00
2017-10-01T17:33:37.528Z,0.00
2017-10-01T17:34:37.417Z,0.00
2017-10-01T17:36:30.235Z,0.00
2017-10-01T17:37:30.155Z,0.00
2017-10-01T17:39:22.952Z,0.00
2017-10-01T17:40:22.827Z,0.00
2017-10-01T17:42:15.667Z,0.00
2017-10-01T17:43:15.513Z,0.00
2017-10-01T17:45:08.298Z,0.00
2017-10-01T17:46:08.145Z,0.00
2017-10-01T17:48:00.948Z,0.00
2017-10-01T17:49:00.820Z,0.00
2017-10-01T17:50:53.620Z,0.00
2017-10-01T17:51:53.536Z,0.00
2017-10-01T17:53:46.463Z,0.00
2017-10-01T17:54:46.270Z,0.00
2017-10-01T17:56:39.011Z,0.00
2017-10-01T17:57:38.921Z,0.00
2017-10-01T17:59:31.673Z,0.00
2017-10-01T18:00:31.542Z,0.00
2017-10-01T18:02:24.432Z,0.00
2017-10-01T18:03:24.355Z,0.00
2017-10-01T18:05:17.259Z,0.00
2017-10-01T18:06:17.063Z,0.00